sensor_id;sensor_type;location;lat;lon;timestamp;temperature;humidity
16404;DHT22;8311;50.158;8.642;2023-05-16T00:02:37;21.50;49.10
16404;DHT22;8311;50.158;8.642;2023-05-16T00:05:30;21.50;49.10
16404;DHT22;8311;50.158;8.642;2023-05-16T00:08:23;21.50;49.10
16404;DHT22;8311;50.158;8.642;2023-05-16T00:11:17;21.50;49.10
16404;DHT22;8311;50.158;8.642;2023-05-16T00:14:10;21.50;49.10
16404;DHT22;8311;50.158;8.642;2023-05-16T00:17:03;21.50;49.10
16404;DHT22;8311;50.158;8.642;2023-05-16T00:20:05;21.50;49.10
16404;DHT22;8311;50.158;8.642;2023-05-16T00:23:00;21.50;49.10
16404;DHT22;8311;50.158;8.642;2023-05-16T00:25:54;21.50;49.70
16404;DHT22;8311;50.158;8.642;2023-05-16T00:28:47;21.50;49.10
16404;DHT22;8311;50.158;8.642;2023-05-16T00:31:40;21.50;49.10
16404;DHT22;8311;50.158;8.642;2023-05-16T00:34:34;21.50;49.10
16404;DHT22;8311;50.158;8.642;2023-05-16T00:37:28;21.50;49.10
16404;DHT22;8311;50.158;8.642;2023-05-16T00:40:21;21.50;49.10
16404;DHT22;8311;50.158;8.642;2023-05-16T00:43:15;21.50;49.10
16404;DHT22;8311;50.158;8.642;2023-05-16T00:46:08;21.50;49.10
16404;DHT22;8311;50.158;8.642;2023-05-16T00:49:02;21.50;49.10
16404;DHT22;8311;50.158;8.642;2023-05-16T00:51:57;21.50;49.10
16404;DHT22;8311;50.158;8.642;2023-05-16T00:54:51;21.50;49.10
16404;DHT22;8311;50.158;8.642;2023-05-16T00:57:45;21.50;49.10
16404;DHT22;8311;50.158;8.642;2023-05-16T01:00:38;21.50;49.20
16404;DHT22;8311;50.158;8.642;2023-05-16T01:03:32;21.50;49.10
16404;DHT22;8311;50.158;8.642;2023-05-16T01:06:26;21.50;49.20
16404;DHT22;8311;50.158;8.642;2023-05-16T01:09:19;21.50;49.20
16404;DHT22;8311;50.158;8.642;2023-05-16T01:12:21;21.50;49.20
16404;DHT22;8311;50.158;8.642;2023-05-16T01:15:20;21.50;49.20
16404;DHT22;8311;50.158;8.642;2023-05-16T01:18:21;21.50;49.20
16404;DHT22;8311;50.158;8.642;2023-05-16T01:21:22;21.50;49.20
16404;DHT22;8311;50.158;8.642;2023-05-16T01:24:32;21.50;49.20
16404;DHT22;8311;50.158;8.642;2023-05-16T01:27:27;21.50;49.20
16404;DHT22;8311;50.158;8.642;2023-05-16T01:30:21;21.50;49.20
16404;DHT22;8311;50.158;8.642;2023-05-16T01:33:14;21.50;49.20
16404;DHT22;8311;50.158;8.642;2023-05-16T01:36:12;21.50;49.10
16404;DHT22;8311;50.158;8.642;2023-05-16T01:39:11;21.50;49.20
16404;DHT22;8311;50.158;8.642;2023-05-16T01:42:08;21.50;49.20
16404;DHT22;8311;50.158;8.642;2023-05-16T01:45:09;21.50;49.20
16404;DHT22;8311;50.158;8.642;2023-05-16T01:48:07;21.50;49.20
16404;DHT22;8311;50.158;8.642;2023-05-16T01:51:02;21.50;49.20
16404;DHT22;8311;50.158;8.642;2023-05-16T01:54:00;21.60;49.20
16404;DHT22;8311;50.158;8.642;2023-05-16T01:56:58;21.50;49.20
16404;DHT22;8311;50.158;8.642;2023-05-16T01:59:52;21.50;49.20
16404;DHT22;8311;50.158;8.642;2023-05-16T02:02:46;21.50;49.20
16404;DHT22;8311;50.158;8.642;2023-05-16T02:05:39;21.50;49.10
16404;DHT22;8311;50.158;8.642;2023-05-16T02:08:32;21.60;49.20
16404;DHT22;8311;50.158;8.642;2023-05-16T02:11:25;21.50;49.10
16404;DHT22;8311;50.158;8.642;2023-05-16T02:14:18;21.50;49.10
16404;DHT22;8311;50.158;8.642;2023-05-16T02:17:11;21.50;49.10
16404;DHT22;8311;50.158;8.642;2023-05-16T02:20:07;21.50;49.10
16404;DHT22;8311;50.158;8.642;2023-05-16T02:23:01;21.50;49.10
16404;DHT22;8311;50.158;8.642;2023-05-16T02:25:54;21.50;49.10
16404;DHT22;8311;50.158;8.642;2023-05-16T02:28:47;21.50;49.10
16404;DHT22;8311;50.158;8.642;2023-05-16T02:31:40;21.50;49.10
16404;DHT22;8311;50.158;8.642;2023-05-16T02:34:34;21.50;49.10
16404;DHT22;8311;50.158;8.642;2023-05-16T02:37:28;21.50;49.10
16404;DHT22;8311;50.158;8.642;2023-05-16T02:40:21;21.50;49.10
16404;DHT22;8311;50.158;8.642;2023-05-16T02:43:14;21.50;49.80
16404;DHT22;8311;50.158;8.642;2023-05-16T02:46:19;21.50;49.20
16404;DHT22;8311;50.158;8.642;2023-05-16T02:49:13;21.50;49.10
16404;DHT22;8311;50.158;8.642;2023-05-16T02:52:06;21.50;49.10
16404;DHT22;8311;50.158;8.642;2023-05-16T02:55:01;21.50;49.10
16404;DHT22;8311;50.158;8.642;2023-05-16T02:58:14;21.50;49.10
16404;DHT22;8311;50.158;8.642;2023-05-16T03:01:08;21.50;49.20
16404;DHT22;8311;50.158;8.642;2023-05-16T03:04:01;21.50;49.20
16404;DHT22;8311;50.158;8.642;2023-05-16T03:06:54;21.50;49.10
16404;DHT22;8311;50.158;8.642;2023-05-16T03:09:48;21.50;49.10
16404;DHT22;8311;50.158;8.642;2023-05-16T03:12:42;21.50;49.10
16404;DHT22;8311;50.158;8.642;2023-05-16T03:15:36;21.50;49.10
16404;DHT22;8311;50.158;8.642;2023-05-16T03:18:29;21.50;49.10
16404;DHT22;8311;50.158;8.642;2023-05-16T03:21:22;21.50;49.10
16404;DHT22;8311;50.158;8.642;2023-05-16T03:24:15;21.50;49.10
16404;DHT22;8311;50.158;8.642;2023-05-16T03:27:08;21.50;49.10
16404;DHT22;8311;50.158;8.642;2023-05-16T03:30:05;21.50;49.10
16404;DHT22;8311;50.158;8.642;2023-05-16T03:32:58;21.50;49.10
16404;DHT22;8311;50.158;8.642;2023-05-16T03:35:51;21.50;49.10
16404;DHT22;8311;50.158;8.642;2023-05-16T03:38:45;21.50;49.10
16404;DHT22;8311;50.158;8.642;2023-05-16T03:41:38;21.50;49.20
16404;DHT22;8311;50.158;8.642;2023-05-16T03:44:31;21.50;49.10
16404;DHT22;8311;50.158;8.642;2023-05-16T03:47:26;21.50;49.10
16404;DHT22;8311;50.158;8.642;2023-05-16T03:50:22;21.50;49.20
16404;DHT22;8311;50.158;8.642;2023-05-16T03:53:16;21.50;49.10
16404;DHT22;8311;50.158;8.642;2023-05-16T03:56:09;21.50;49.10
16404;DHT22;8311;50.158;8.642;2023-05-16T03:59:03;21.50;49.10
16404;DHT22;8311;50.158;8.642;2023-05-16T04:01:57;21.50;49.10
16404;DHT22;8311;50.158;8.642;2023-05-16T04:04:52;21.50;49.10
16404;DHT22;8311;50.158;8.642;2023-05-16T04:07:46;21.50;49.10
16404;DHT22;8311;50.158;8.642;2023-05-16T04:10:39;21.50;49.10
16404;DHT22;8311;50.158;8.642;2023-05-16T04:13:32;21.50;49.10
16404;DHT22;8311;50.158;8.642;2023-05-16T04:16:27;21.50;49.10
16404;DHT22;8311;50.158;8.642;2023-05-16T04:19:20;21.50;49.10
16404;DHT22;8311;50.158;8.642;2023-05-16T04:22:15;21.50;49.10
16404;DHT22;8311;50.158;8.642;2023-05-16T04:25:09;21.50;49.10
16404;DHT22;8311;50.158;8.642;2023-05-16T04:28:04;21.50;49.10
16404;DHT22;8311;50.158;8.642;2023-05-16T04:30:57;21.50;49.10
16404;DHT22;8311;50.158;8.642;2023-05-16T04:33:50;21.50;49.20
16404;DHT22;8311;50.158;8.642;2023-05-16T04:36:44;21.50;49.10
16404;DHT22;8311;50.158;8.642;2023-05-16T04:39:39;21.50;49.10
16404;DHT22;8311;50.158;8.642;2023-05-16T04:42:33;21.50;49.10
16404;DHT22;8311;50.158;8.642;2023-05-16T04:45:26;21.40;49.10
16404;DHT22;8311;50.158;8.642;2023-05-16T04:48:20;21.50;49.20
16404;DHT22;8311;50.158;8.642;2023-05-16T04:51:13;21.50;49.20
16404;DHT22;8311;50.158;8.642;2023-05-16T04:54:06;21.50;49.20
16404;DHT22;8311;50.158;8.642;2023-05-16T04:57:03;21.50;49.20
16404;DHT22;8311;50.158;8.642;2023-05-16T04:59:56;21.50;49.20
16404;DHT22;8311;50.158;8.642;2023-05-16T05:02:50;21.50;49.20
16404;DHT22;8311;50.158;8.642;2023-05-16T05:05:43;21.50;49.20
16404;DHT22;8311;50.158;8.642;2023-05-16T05:08:37;21.50;49.10
16404;DHT22;8311;50.158;8.642;2023-05-16T05:11:30;21.50;49.10
16404;DHT22;8311;50.158;8.642;2023-05-16T05:14:25;21.50;49.10
16404;DHT22;8311;50.158;8.642;2023-05-16T05:17:18;21.50;49.10
16404;DHT22;8311;50.158;8.642;2023-05-16T05:20:12;21.50;49.10
16404;DHT22;8311;50.158;8.642;2023-05-16T05:23:05;21.50;49.10
16404;DHT22;8311;50.158;8.642;2023-05-16T05:25:59;21.50;49.10
16404;DHT22;8311;50.158;8.642;2023-05-16T05:28:52;21.50;49.10
16404;DHT22;8311;50.158;8.642;2023-05-16T05:31:57;21.50;49.10
16404;DHT22;8311;50.158;8.642;2023-05-16T05:34:50;21.50;49.10
16404;DHT22;8311;50.158;8.642;2023-05-16T05:37:44;21.50;49.10
16404;DHT22;8311;50.158;8.642;2023-05-16T05:40:37;21.50;49.10
16404;DHT22;8311;50.158;8.642;2023-05-16T05:43:31;21.50;49.10
16404;DHT22;8311;50.158;8.642;2023-05-16T05:46:24;21.40;49.00
16404;DHT22;8311;50.158;8.642;2023-05-16T05:49:19;21.50;49.10
16404;DHT22;8311;50.158;8.642;2023-05-16T05:52:13;21.50;49.00
16404;DHT22;8311;50.158;8.642;2023-05-16T05:55:07;21.50;49.00
16404;DHT22;8311;50.158;8.642;2023-05-16T05:58:00;21.50;49.60
16404;DHT22;8311;50.158;8.642;2023-05-16T06:00:57;21.50;48.90
16404;DHT22;8311;50.158;8.642;2023-05-16T06:03:50;21.50;49.00
16404;DHT22;8311;50.158;8.642;2023-05-16T06:06:45;21.50;49.00
16404;DHT22;8311;50.158;8.642;2023-05-16T06:09:38;21.50;49.00
16404;DHT22;8311;50.158;8.642;2023-05-16T06:12:32;21.50;49.00
16404;DHT22;8311;50.158;8.642;2023-05-16T06:15:25;21.50;49.00
16404;DHT22;8311;50.158;8.642;2023-05-16T06:18:19;21.50;49.00
16404;DHT22;8311;50.158;8.642;2023-05-16T06:21:12;21.40;49.00
16404;DHT22;8311;50.158;8.642;2023-05-16T06:24:07;21.40;48.90
16404;DHT22;8311;50.158;8.642;2023-05-16T06:27:00;21.50;49.00
16404;DHT22;8311;50.158;8.642;2023-05-16T06:29:53;21.50;49.00
16404;DHT22;8311;50.158;8.642;2023-05-16T06:32:46;21.50;49.00
16404;DHT22;8311;50.158;8.642;2023-05-16T06:35:39;21.50;48.90
16404;DHT22;8311;50.158;8.642;2023-05-16T06:38:32;21.50;48.90
16404;DHT22;8311;50.158;8.642;2023-05-16T06:41:27;21.50;48.90
16404;DHT22;8311;50.158;8.642;2023-05-16T06:44:20;21.50;48.90
16404;DHT22;8311;50.158;8.642;2023-05-16T06:47:13;21.50;48.80
16404;DHT22;8311;50.158;8.642;2023-05-16T06:50:07;21.40;48.80
16404;DHT22;8311;50.158;8.642;2023-05-16T06:53:01;21.40;48.80
16404;DHT22;8311;50.158;8.642;2023-05-16T06:55:55;21.40;48.80
16404;DHT22;8311;50.158;8.642;2023-05-16T06:58:50;21.40;48.80
16404;DHT22;8311;50.158;8.642;2023-05-16T07:01:42;21.50;48.80
16404;DHT22;8311;50.158;8.642;2023-05-16T07:04:36;21.40;48.70
16404;DHT22;8311;50.158;8.642;2023-05-16T07:07:30;21.40;48.80
16404;DHT22;8311;50.158;8.642;2023-05-16T07:10:24;21.40;48.80
16404;DHT22;8311;50.158;8.642;2023-05-16T07:13:19;21.40;48.80
16404;DHT22;8311;50.158;8.642;2023-05-16T07:16:14;21.40;48.80
16404;DHT22;8311;50.158;8.642;2023-05-16T07:19:07;21.40;48.80
16404;DHT22;8311;50.158;8.642;2023-05-16T07:22:00;21.40;48.80
16404;DHT22;8311;50.158;8.642;2023-05-16T07:24:53;21.40;48.80
16404;DHT22;8311;50.158;8.642;2023-05-16T07:27:47;21.40;48.90
16404;DHT22;8311;50.158;8.642;2023-05-16T07:30:40;21.40;48.70
16404;DHT22;8311;50.158;8.642;2023-05-16T07:33:35;21.40;49.40
16404;DHT22;8311;50.158;8.642;2023-05-16T07:36:28;21.40;48.70
16404;DHT22;8311;50.158;8.642;2023-05-16T07:39:21;21.40;48.70
16404;DHT22;8311;50.158;8.642;2023-05-16T07:42:14;21.40;48.70
16404;DHT22;8311;50.158;8.642;2023-05-16T07:45:08;21.40;48.60
16404;DHT22;8311;50.158;8.642;2023-05-16T07:48:00;21.40;48.50
16404;DHT22;8311;50.158;8.642;2023-05-16T07:50:55;21.40;48.50
16404;DHT22;8311;50.158;8.642;2023-05-16T07:53:48;21.40;48.50
16404;DHT22;8311;50.158;8.642;2023-05-16T07:56:42;21.40;48.40
16404;DHT22;8311;50.158;8.642;2023-05-16T07:59:35;21.40;48.30
16404;DHT22;8311;50.158;8.642;2023-05-16T08:02:29;21.40;48.30
16404;DHT22;8311;50.158;8.642;2023-05-16T08:05:22;21.40;48.30
16404;DHT22;8311;50.158;8.642;2023-05-16T08:08:18;21.40;48.20
16404;DHT22;8311;50.158;8.642;2023-05-16T08:11:11;21.40;48.20
16404;DHT22;8311;50.158;8.642;2023-05-16T08:14:05;21.40;48.20
16404;DHT22;8311;50.158;8.642;2023-05-16T08:16:58;21.40;48.10
16404;DHT22;8311;50.158;8.642;2023-05-16T08:19:51;21.40;48.10
16404;DHT22;8311;50.158;8.642;2023-05-16T08:22:45;21.40;48.20
16404;DHT22;8311;50.158;8.642;2023-05-16T08:25:40;21.40;48.10
16404;DHT22;8311;50.158;8.642;2023-05-16T08:28:33;21.40;48.10
16404;DHT22;8311;50.158;8.642;2023-05-16T08:31:26;21.40;48.10
16404;DHT22;8311;50.158;8.642;2023-05-16T08:34:22;21.40;48.10
16404;DHT22;8311;50.158;8.642;2023-05-16T08:37:16;21.40;48.10
16404;DHT22;8311;50.158;8.642;2023-05-16T08:40:09;21.40;48.00
16404;DHT22;8311;50.158;8.642;2023-05-16T08:43:04;21.40;48.00
16404;DHT22;8311;50.158;8.642;2023-05-16T08:45:58;21.40;48.00
16404;DHT22;8311;50.158;8.642;2023-05-16T08:48:52;21.40;48.00
16404;DHT22;8311;50.158;8.642;2023-05-16T08:51:46;21.40;48.00
16404;DHT22;8311;50.158;8.642;2023-05-16T08:54:40;21.40;47.90
16404;DHT22;8311;50.158;8.642;2023-05-16T08:57:33;21.40;47.90
16404;DHT22;8311;50.158;8.642;2023-05-16T09:00:28;21.40;47.70
16404;DHT22;8311;50.158;8.642;2023-05-16T09:03:22;21.40;47.70
16404;DHT22;8311;50.158;8.642;2023-05-16T09:06:19;21.40;47.60
16404;DHT22;8311;50.158;8.642;2023-05-16T09:09:13;21.40;47.50
16404;DHT22;8311;50.158;8.642;2023-05-16T09:12:07;21.30;47.40
16404;DHT22;8311;50.158;8.642;2023-05-16T09:15:01;21.40;47.40
16404;DHT22;8311;50.158;8.642;2023-05-16T09:17:59;21.40;47.30
16404;DHT22;8311;50.158;8.642;2023-05-16T09:20:52;21.40;47.20
16404;DHT22;8311;50.158;8.642;2023-05-16T09:23:47;21.40;47.20
16404;DHT22;8311;50.158;8.642;2023-05-16T09:26:43;21.40;47.10
16404;DHT22;8311;50.158;8.642;2023-05-16T09:29:39;21.40;47.10
16404;DHT22;8311;50.158;8.642;2023-05-16T09:32:31;21.40;47.10
16404;DHT22;8311;50.158;8.642;2023-05-16T09:35:26;21.40;47.10
16404;DHT22;8311;50.158;8.642;2023-05-16T09:38:36;21.40;47.10
16404;DHT22;8311;50.158;8.642;2023-05-16T09:41:32;21.40;47.00
16404;DHT22;8311;50.158;8.642;2023-05-16T09:44:26;21.40;47.10
16404;DHT22;8311;50.158;8.642;2023-05-16T09:47:19;21.40;47.10
16404;DHT22;8311;50.158;8.642;2023-05-16T09:50:13;21.40;47.00
16404;DHT22;8311;50.158;8.642;2023-05-16T09:53:12;21.40;47.00
16404;DHT22;8311;50.158;8.642;2023-05-16T09:56:07;21.40;47.00
16404;DHT22;8311;50.158;8.642;2023-05-16T09:59:09;21.40;47.00
16404;DHT22;8311;50.158;8.642;2023-05-16T10:02:04;21.40;47.00
16404;DHT22;8311;50.158;8.642;2023-05-16T10:04:58;21.30;47.00
16404;DHT22;8311;50.158;8.642;2023-05-16T10:07:52;21.30;46.90
16404;DHT22;8311;50.158;8.642;2023-05-16T10:10:50;21.30;47.00
16404;DHT22;8311;50.158;8.642;2023-05-16T10:13:45;21.30;47.00
16404;DHT22;8311;50.158;8.642;2023-05-16T10:16:46;21.30;46.90
16404;DHT22;8311;50.158;8.642;2023-05-16T10:19:41;21.30;46.90
16404;DHT22;8311;50.158;8.642;2023-05-16T10:22:35;21.30;47.60
16404;DHT22;8311;50.158;8.642;2023-05-16T10:25:33;21.30;47.00
16404;DHT22;8311;50.158;8.642;2023-05-16T10:28:30;21.30;46.90
16404;DHT22;8311;50.158;8.642;2023-05-16T10:31:23;21.30;47.00
16404;DHT22;8311;50.158;8.642;2023-05-16T10:34:17;21.40;47.00
16404;DHT22;8311;50.158;8.642;2023-05-16T10:37:10;21.30;47.00
16404;DHT22;8311;50.158;8.642;2023-05-16T10:40:05;21.30;47.00
16404;DHT22;8311;50.158;8.642;2023-05-16T10:43:01;21.30;47.00
16404;DHT22;8311;50.158;8.642;2023-05-16T10:45:58;21.30;47.00
16404;DHT22;8311;50.158;8.642;2023-05-16T10:48:54;21.30;47.00
16404;DHT22;8311;50.158;8.642;2023-05-16T10:52:04;21.30;47.00
16404;DHT22;8311;50.158;8.642;2023-05-16T10:55:01;21.30;47.00
16404;DHT22;8311;50.158;8.642;2023-05-16T10:57:56;21.30;47.00
16404;DHT22;8311;50.158;8.642;2023-05-16T11:00:48;21.30;47.00
16404;DHT22;8311;50.158;8.642;2023-05-16T11:04:02;21.30;47.00
16404;DHT22;8311;50.158;8.642;2023-05-16T11:06:57;21.30;47.00
16404;DHT22;8311;50.158;8.642;2023-05-16T11:10:05;21.30;46.90
16404;DHT22;8311;50.158;8.642;2023-05-16T11:13:02;21.30;46.90
16404;DHT22;8311;50.158;8.642;2023-05-16T11:16:26;21.30;46.90
16404;DHT22;8311;50.158;8.642;2023-05-16T11:19:32;21.30;46.90
16404;DHT22;8311;50.158;8.642;2023-05-16T11:22:28;21.30;46.80
16404;DHT22;8311;50.158;8.642;2023-05-16T11:25:34;21.30;46.80
16404;DHT22;8311;50.158;8.642;2023-05-16T11:28:30;21.30;46.70
16404;DHT22;8311;50.158;8.642;2023-05-16T11:31:24;21.30;46.60
16404;DHT22;8311;50.158;8.642;2023-05-16T11:34:17;21.30;46.70
16404;DHT22;8311;50.158;8.642;2023-05-16T11:37:11;21.30;46.60
16404;DHT22;8311;50.158;8.642;2023-05-16T11:40:08;21.30;46.60
16404;DHT22;8311;50.158;8.642;2023-05-16T11:43:02;21.30;46.60
16404;DHT22;8311;50.158;8.642;2023-05-16T11:45:59;21.30;46.60
16404;DHT22;8311;50.158;8.642;2023-05-16T11:48:52;21.30;46.50
16404;DHT22;8311;50.158;8.642;2023-05-16T11:51:45;21.30;46.50
16404;DHT22;8311;50.158;8.642;2023-05-16T11:54:39;21.30;46.50
16404;DHT22;8311;50.158;8.642;2023-05-16T11:57:33;21.30;46.60
16404;DHT22;8311;50.158;8.642;2023-05-16T12:00:26;21.30;46.40
16404;DHT22;8311;50.158;8.642;2023-05-16T12:03:20;21.30;46.50
16404;DHT22;8311;50.158;8.642;2023-05-16T12:06:14;21.30;46.40
16404;DHT22;8311;50.158;8.642;2023-05-16T12:09:11;21.40;46.60
16404;DHT22;8311;50.158;8.642;2023-05-16T12:12:10;21.30;46.50
16404;DHT22;8311;50.158;8.642;2023-05-16T12:15:05;21.40;46.60
16404;DHT22;8311;50.158;8.642;2023-05-16T12:17:59;21.40;46.50
16404;DHT22;8311;50.158;8.642;2023-05-16T12:20:53;21.30;46.60
16404;DHT22;8311;50.158;8.642;2023-05-16T12:23:46;21.30;46.60
16404;DHT22;8311;50.158;8.642;2023-05-16T12:26:39;21.30;46.80
16404;DHT22;8311;50.158;8.642;2023-05-16T12:29:35;21.30;46.70
16404;DHT22;8311;50.158;8.642;2023-05-16T12:32:28;21.30;46.70
16404;DHT22;8311;50.158;8.642;2023-05-16T12:35:22;21.30;46.40
16404;DHT22;8311;50.158;8.642;2023-05-16T12:38:15;21.30;46.50
16404;DHT22;8311;50.158;8.642;2023-05-16T12:41:10;21.30;46.50
16404;DHT22;8311;50.158;8.642;2023-05-16T12:44:09;21.30;46.50
16404;DHT22;8311;50.158;8.642;2023-05-16T12:47:10;21.30;46.70
16404;DHT22;8311;50.158;8.642;2023-05-16T12:50:08;21.30;46.60
16404;DHT22;8311;50.158;8.642;2023-05-16T12:53:02;21.30;46.60
16404;DHT22;8311;50.158;8.642;2023-05-16T12:55:56;21.30;46.70
16404;DHT22;8311;50.158;8.642;2023-05-16T12:58:49;21.30;46.50
16404;DHT22;8311;50.158;8.642;2023-05-16T13:01:43;21.30;46.60
16404;DHT22;8311;50.158;8.642;2023-05-16T13:04:38;21.30;46.60
16404;DHT22;8311;50.158;8.642;2023-05-16T13:07:32;21.30;46.50
16404;DHT22;8311;50.158;8.642;2023-05-16T13:10:26;21.30;46.50
16404;DHT22;8311;50.158;8.642;2023-05-16T13:13:20;21.30;46.40
16404;DHT22;8311;50.158;8.642;2023-05-16T13:16:26;21.30;46.20
16404;DHT22;8311;50.158;8.642;2023-05-16T13:19:20;21.30;46.30
16404;DHT22;8311;50.158;8.642;2023-05-16T13:22:16;21.30;46.40
16404;DHT22;8311;50.158;8.642;2023-05-16T13:25:10;21.30;46.10
16404;DHT22;8311;50.158;8.642;2023-05-16T13:28:04;21.30;46.00
16404;DHT22;8311;50.158;8.642;2023-05-16T13:30:57;21.30;46.10
16404;DHT22;8311;50.158;8.642;2023-05-16T13:33:52;21.30;46.10
16404;DHT22;8311;50.158;8.642;2023-05-16T13:36:45;21.30;46.00
16404;DHT22;8311;50.158;8.642;2023-05-16T13:39:47;21.30;46.80
16404;DHT22;8311;50.158;8.642;2023-05-16T13:42:41;21.30;45.90
16404;DHT22;8311;50.158;8.642;2023-05-16T13:45:34;21.30;46.00
16404;DHT22;8311;50.158;8.642;2023-05-16T13:48:27;21.30;46.00
16404;DHT22;8311;50.158;8.642;2023-05-16T13:51:21;21.30;46.10
16404;DHT22;8311;50.158;8.642;2023-05-16T13:54:14;21.30;46.00
16404;DHT22;8311;50.158;8.642;2023-05-16T13:57:09;21.30;46.20
16404;DHT22;8311;50.158;8.642;2023-05-16T14:00:02;21.30;46.10
16404;DHT22;8311;50.158;8.642;2023-05-16T14:03:03;21.30;46.00
16404;DHT22;8311;50.158;8.642;2023-05-16T14:05:56;21.30;45.90
16404;DHT22;8311;50.158;8.642;2023-05-16T14:08:49;21.30;46.10
16404;DHT22;8311;50.158;8.642;2023-05-16T14:11:43;21.30;45.80
16404;DHT22;8311;50.158;8.642;2023-05-16T14:14:37;21.30;46.00
16404;DHT22;8311;50.158;8.642;2023-05-16T14:17:31;21.30;46.10
16404;DHT22;8311;50.158;8.642;2023-05-16T14:20:24;21.30;46.00
16404;DHT22;8311;50.158;8.642;2023-05-16T14:23:17;21.30;46.00
16404;DHT22;8311;50.158;8.642;2023-05-16T14:26:11;21.30;46.10
16404;DHT22;8311;50.158;8.642;2023-05-16T14:29:03;21.30;46.00
16404;DHT22;8311;50.158;8.642;2023-05-16T14:31:58;21.30;45.90
16404;DHT22;8311;50.158;8.642;2023-05-16T14:34:52;21.30;45.80
16404;DHT22;8311;50.158;8.642;2023-05-16T14:37:45;21.30;45.70
16404;DHT22;8311;50.158;8.642;2023-05-16T14:40:39;21.30;45.80
16404;DHT22;8311;50.158;8.642;2023-05-16T14:43:32;21.30;45.90
16404;DHT22;8311;50.158;8.642;2023-05-16T14:46:25;21.30;45.90
16404;DHT22;8311;50.158;8.642;2023-05-16T14:49:20;21.30;45.90
16404;DHT22;8311;50.158;8.642;2023-05-16T14:52:14;21.30;45.60
16404;DHT22;8311;50.158;8.642;2023-05-16T14:55:09;21.30;45.60
16404;DHT22;8311;50.158;8.642;2023-05-16T14:58:04;21.30;45.40
16404;DHT22;8311;50.158;8.642;2023-05-16T15:00:57;21.30;45.40
16404;DHT22;8311;50.158;8.642;2023-05-16T15:03:50;21.30;45.40
16404;DHT22;8311;50.158;8.642;2023-05-16T15:06:48;21.30;45.50
16404;DHT22;8311;50.158;8.642;2023-05-16T15:09:41;21.30;45.90
16404;DHT22;8311;50.158;8.642;2023-05-16T15:12:34;21.30;45.40
16404;DHT22;8311;50.158;8.642;2023-05-16T15:15:27;21.30;45.40
16404;DHT22;8311;50.158;8.642;2023-05-16T15:18:20;21.30;45.20
16404;DHT22;8311;50.158;8.642;2023-05-16T15:21:14;21.30;45.90
16404;DHT22;8311;50.158;8.642;2023-05-16T15:24:09;21.30;45.70
16404;DHT22;8311;50.158;8.642;2023-05-16T15:27:04;21.30;45.60
16404;DHT22;8311;50.158;8.642;2023-05-16T15:29:58;21.30;45.60
16404;DHT22;8311;50.158;8.642;2023-05-16T15:32:52;21.30;45.80
16404;DHT22;8311;50.158;8.642;2023-05-16T15:35:45;21.30;46.10
16404;DHT22;8311;50.158;8.642;2023-05-16T15:38:39;21.30;45.90
16404;DHT22;8311;50.158;8.642;2023-05-16T15:41:36;21.30;45.60
16404;DHT22;8311;50.158;8.642;2023-05-16T15:44:50;21.30;45.80
16404;DHT22;8311;50.158;8.642;2023-05-16T15:47:43;21.30;46.00
16404;DHT22;8311;50.158;8.642;2023-05-16T15:50:36;21.30;46.00
16404;DHT22;8311;50.158;8.642;2023-05-16T15:53:30;21.30;45.60
16404;DHT22;8311;50.158;8.642;2023-05-16T15:56:24;21.30;45.70
16404;DHT22;8311;50.158;8.642;2023-05-16T15:59:19;21.30;45.60
16404;DHT22;8311;50.158;8.642;2023-05-16T16:02:13;21.30;45.40
16404;DHT22;8311;50.158;8.642;2023-05-16T16:05:09;21.30;46.20
16404;DHT22;8311;50.158;8.642;2023-05-16T16:08:02;21.20;45.20
16404;DHT22;8311;50.158;8.642;2023-05-16T16:11:01;21.30;45.40
16404;DHT22;8311;50.158;8.642;2023-05-16T16:13:57;21.20;45.20
16404;DHT22;8311;50.158;8.642;2023-05-16T16:16:52;21.30;45.20
16404;DHT22;8311;50.158;8.642;2023-05-16T16:19:45;21.20;45.10
16404;DHT22;8311;50.158;8.642;2023-05-16T16:22:39;21.30;45.00
16404;DHT22;8311;50.158;8.642;2023-05-16T16:25:32;21.20;45.00
16404;DHT22;8311;50.158;8.642;2023-05-16T16:28:26;21.20;45.00
16404;DHT22;8311;50.158;8.642;2023-05-16T16:31:19;21.20;44.90
16404;DHT22;8311;50.158;8.642;2023-05-16T16:34:14;21.20;45.00
16404;DHT22;8311;50.158;8.642;2023-05-16T16:37:08;21.20;44.90
16404;DHT22;8311;50.158;8.642;2023-05-16T16:40:02;21.20;44.90
16404;DHT22;8311;50.158;8.642;2023-05-16T16:42:56;21.20;45.00
16404;DHT22;8311;50.158;8.642;2023-05-16T16:45:50;21.20;44.80
16404;DHT22;8311;50.158;8.642;2023-05-16T16:48:43;21.20;44.80
16404;DHT22;8311;50.158;8.642;2023-05-16T16:51:37;21.20;44.80
16404;DHT22;8311;50.158;8.642;2023-05-16T16:54:31;21.20;44.60
16404;DHT22;8311;50.158;8.642;2023-05-16T16:57:24;21.20;44.90
16404;DHT22;8311;50.158;8.642;2023-05-16T17:00:18;21.20;44.80
16404;DHT22;8311;50.158;8.642;2023-05-16T17:03:12;21.20;44.70
16404;DHT22;8311;50.158;8.642;2023-05-16T17:06:05;21.20;44.70
16404;DHT22;8311;50.158;8.642;2023-05-16T17:09:00;21.20;44.60
16404;DHT22;8311;50.158;8.642;2023-05-16T17:11:56;21.20;44.70
16404;DHT22;8311;50.158;8.642;2023-05-16T17:14:55;21.20;44.50
16404;DHT22;8311;50.158;8.642;2023-05-16T17:17:49;21.20;44.40
16404;DHT22;8311;50.158;8.642;2023-05-16T17:20:41;21.20;44.50
16404;DHT22;8311;50.158;8.642;2023-05-16T17:23:35;21.20;44.50
16404;DHT22;8311;50.158;8.642;2023-05-16T17:26:30;21.20;44.50
16404;DHT22;8311;50.158;8.642;2023-05-16T17:29:24;21.20;44.30
16404;DHT22;8311;50.158;8.642;2023-05-16T17:32:18;21.20;44.30
16404;DHT22;8311;50.158;8.642;2023-05-16T17:35:12;21.20;44.50
16404;DHT22;8311;50.158;8.642;2023-05-16T17:38:05;21.20;44.40
16404;DHT22;8311;50.158;8.642;2023-05-16T17:40:58;21.20;44.40
16404;DHT22;8311;50.158;8.642;2023-05-16T17:43:52;21.20;44.40
16404;DHT22;8311;50.158;8.642;2023-05-16T17:46:45;21.20;44.90
16404;DHT22;8311;50.158;8.642;2023-05-16T17:49:38;21.20;44.50
16404;DHT22;8311;50.158;8.642;2023-05-16T17:52:31;21.20;44.30
16404;DHT22;8311;50.158;8.642;2023-05-16T17:55:25;21.20;44.40
16404;DHT22;8311;50.158;8.642;2023-05-16T17:58:19;21.20;44.40
16404;DHT22;8311;50.158;8.642;2023-05-16T18:01:14;21.20;44.40
16404;DHT22;8311;50.158;8.642;2023-05-16T18:04:07;21.20;44.30
16404;DHT22;8311;50.158;8.642;2023-05-16T18:07:02;21.20;44.40
16404;DHT22;8311;50.158;8.642;2023-05-16T18:09:56;21.20;44.40
16404;DHT22;8311;50.158;8.642;2023-05-16T18:12:50;21.20;44.40
16404;DHT22;8311;50.158;8.642;2023-05-16T18:15:43;21.20;44.40
16404;DHT22;8311;50.158;8.642;2023-05-16T18:18:38;21.20;44.40
16404;DHT22;8311;50.158;8.642;2023-05-16T18:21:32;21.20;44.60
16404;DHT22;8311;50.158;8.642;2023-05-16T18:24:26;21.20;44.70
16404;DHT22;8311;50.158;8.642;2023-05-16T18:27:19;21.20;45.10
16404;DHT22;8311;50.158;8.642;2023-05-16T18:30:12;21.20;44.50
16404;DHT22;8311;50.158;8.642;2023-05-16T18:33:07;21.20;44.60
16404;DHT22;8311;50.158;8.642;2023-05-16T18:36:03;21.20;44.50
16404;DHT22;8311;50.158;8.642;2023-05-16T18:38:56;21.20;44.50
16404;DHT22;8311;50.158;8.642;2023-05-16T18:41:49;21.20;44.40